createdAt,value
2019-04-22T00:01:43.471Z,-82
2019-04-22T00:04:23.499Z,-82
2019-04-22T00:07:09.824Z,-82
2019-04-22T00:09:56.441Z,-82
2019-04-22T00:12:28.027Z,-82
2019-04-22T00:14:52.825Z,-82
2019-04-22T00:17:38.649Z,-82
2019-04-22T00:20:04.305Z,-82
2019-04-22T00:22:51.864Z,-82
2019-04-22T00:25:17.686Z,-82
2019-04-22T00:27:47.681Z,-82
2019-04-22T00:30:32.429Z,-81
2019-04-22T00:33:26.775Z,-82
2019-04-22T00:36:04.411Z,-81
2019-04-22T00:38:42.031Z,-80
2019-04-22T00:41:16.685Z,-82
2019-04-22T00:43:48.059Z,-81
2019-04-22T00:46:22.643Z,-81
2019-04-22T00:49:20.481Z,-82
2019-04-22T00:51:28.594Z,-81
2019-04-22T00:54:03.375Z,-81
2019-04-22T00:56:35.752Z,-82
2019-04-22T00:59:11.956Z,-82
2019-04-22T01:01:45.309Z,-82
2019-04-22T01:04:20.383Z,-83
2019-04-22T01:06:51.313Z,-83
2019-04-22T01:09:25.403Z,-82
2019-04-22T01:12:04.683Z,-82
2019-04-22T01:14:37.236Z,-82
2019-04-22T01:17:06.408Z,-82
2019-04-22T01:19:45.065Z,-81
2019-04-22T01:22:16.344Z,-82
2019-04-22T01:24:48.615Z,-82
2019-04-22T01:27:16.309Z,-81
2019-04-22T01:29:46.812Z,-81
2019-04-22T01:32:14.345Z,-81
2019-04-22T01:34:56.538Z,-81
2019-04-22T01:37:35.486Z,-82
2019-04-22T01:40:21.391Z,-83
2019-04-22T01:42:53.647Z,-83
2019-04-22T01:45:25.851Z,-82
2019-04-22T01:48:00.520Z,-81
2019-04-22T01:50:32.103Z,-82
2019-04-22T01:53:06.007Z,-82
2019-04-22T01:55:39.100Z,-82
2019-04-22T01:58:09.455Z,-82
2019-04-22T02:00:44.353Z,-82
2019-04-22T02:03:17.682Z,-80
2019-04-22T02:05:50.570Z,-81
2019-04-22T02:08:31.378Z,-82
2019-04-22T02:11:01.050Z,-82
2019-04-22T02:13:36.733Z,-82
2019-04-22T02:16:07.260Z,-82
2019-04-22T02:18:46.350Z,-82
2019-04-22T02:21:13.709Z,-81
2019-04-22T02:26:29.916Z,-82
2019-04-22T02:28:53.674Z,-81
2019-04-22T02:34:13.730Z,-82
2019-04-22T02:39:20.162Z,-82
2019-04-22T02:41:50.865Z,-82
2019-04-22T02:44:32.602Z,-82
2019-04-22T02:49:31.566Z,-81
2019-04-22T02:51:59.758Z,-81
2019-04-22T02:57:24.054Z,-81
2019-04-22T02:59:53.896Z,-81
2019-04-22T03:02:49.074Z,-81
2019-04-22T03:04:55.612Z,-82
2019-04-22T03:07:24.922Z,-82
2019-04-22T03:15:07.846Z,-81
2019-04-22T03:18:01.317Z,-81
2019-04-22T03:20:11.109Z,-82
2019-04-22T03:22:55.650Z,-82
2019-04-22T03:25:51.662Z,-82
2019-04-22T03:27:56.321Z,-82
2019-04-22T03:36:11.971Z,-81
2019-04-22T03:38:12.082Z,-81
2019-04-22T03:41:03.331Z,-82
2019-04-22T03:43:24.008Z,-82
2019-04-22T03:45:46.412Z,-81
2019-04-22T03:48:26.371Z,-82
2019-04-22T03:51:07.498Z,-81
2019-04-22T03:53:33.348Z,-82
2019-04-22T03:56:29.076Z,-82
2019-04-22T03:58:52.771Z,-83
2019-04-22T04:01:33.719Z,-83
2019-04-22T04:04:01.021Z,-82
2019-04-22T04:06:37.035Z,-82
2019-04-22T04:08:59.239Z,-82
2019-04-22T04:11:43.234Z,-82
2019-04-22T04:14:12.324Z,-82
2019-04-22T04:16:52.103Z,-82
2019-04-22T04:29:45.731Z,-82
2019-04-22T04:32:25.162Z,-82
2019-04-22T04:37:38.913Z,-82
2019-04-22T04:40:00.359Z,-82
2019-04-22T04:45:10.917Z,-82
2019-04-22T04:50:35.359Z,-82
2019-04-22T04:55:17.582Z,-81
2019-04-22T05:00:40.114Z,-82
2019-04-22T05:02:53.128Z,-82
2019-04-22T05:07:56.005Z,-81
2019-04-22T05:10:44.815Z,-82
2019-04-22T05:13:01.324Z,-82
2019-04-22T05:16:10.587Z,-82
2019-04-22T05:23:24.619Z,-82
2019-04-22T05:25:55.148Z,-82
2019-04-22T05:28:23.906Z,-82
2019-04-22T05:31:00.517Z,-82
2019-04-22T05:33:34.877Z,-82
2019-04-22T05:36:07.598Z,-81
2019-04-22T05:38:50.164Z,-82
2019-04-22T05:41:17.972Z,-81
2019-04-22T05:43:56.366Z,-81
2019-04-22T05:46:26.171Z,-80
2019-04-22T05:49:15.169Z,-81
2019-04-22T05:51:31.319Z,-81
2019-04-22T05:54:05.488Z,-83
2019-04-22T05:56:37.175Z,-81
2019-04-22T05:59:14.730Z,-81
2019-04-22T06:04:23.624Z,-81
2019-04-22T06:06:58.380Z,-81
2019-04-22T06:09:33.517Z,-82
2019-04-22T06:11:59.104Z,-81
2019-04-22T06:14:39.374Z,-81
2019-04-22T06:17:24.745Z,-82
2019-04-22T06:19:50.850Z,-81
2019-04-22T06:22:37.630Z,-82
2019-04-22T06:25:00.962Z,-81
2019-04-22T06:27:35.439Z,-81
2019-04-22T06:30:09.727Z,-81
2019-04-22T06:32:39.607Z,-81
2019-04-22T06:35:23.367Z,-82
2019-04-22T06:38:12.496Z,-81
2019-04-22T06:40:26.884Z,-84
2019-04-22T06:43:03.412Z,-81
2019-04-22T06:48:10.866Z,-81
2019-04-22T06:50:41.714Z,-80
2019-04-22T06:53:17.569Z,-83
2019-04-22T06:55:48.220Z,-81
2019-04-22T06:58:20.055Z,-81
2019-04-22T07:00:55.761Z,-81
2019-04-22T07:06:07.387Z,-82
2019-04-22T07:11:11.392Z,-84
2019-04-22T07:13:57.438Z,-82
2019-04-22T07:16:47.110Z,-82
2019-04-22T07:18:56.710Z,-81
2019-04-22T07:21:30.624Z,-83
2019-04-22T07:24:22.769Z,-82
2019-04-22T07:26:42.448Z,-83
2019-04-22T07:29:17.180Z,-82
2019-04-22T07:31:51.096Z,-82
2019-04-22T07:34:26.496Z,-82
2019-04-22T07:37:20.026Z,-82
2019-04-22T07:39:35.549Z,-82
2019-04-22T07:42:10.452Z,-83
2019-04-22T07:44:43.307Z,-82
2019-04-22T07:47:18.556Z,-82
2019-04-22T07:52:24.570Z,-84
2019-04-22T07:54:59.517Z,-83
2019-04-22T08:00:09.023Z,-81
2019-04-22T08:02:44.301Z,-84
2019-04-22T08:05:12.501Z,-83
2019-04-22T08:07:52.472Z,-84
2019-04-22T08:10:34.404Z,-85
2019-04-22T08:12:57.684Z,-86
2019-04-22T08:15:34.955Z,-87
2019-04-22T08:18:06.879Z,-87
2019-04-22T08:25:47.591Z,-88
2019-04-22T08:28:26.590Z,-90
2019-04-22T08:33:35.418Z,-89
2019-04-22T08:36:18.410Z,-91
2019-04-22T08:38:39.510Z,-88
2019-04-22T08:41:28.949Z,-87
2019-04-22T08:46:34.142Z,-90
2019-04-22T08:48:59.085Z,-87
2019-04-22T08:51:49.367Z,-87
2019-04-22T08:56:58.448Z,-88
2019-04-22T09:01:52.000Z,-83
2019-04-22T09:04:20.019Z,-86
2019-04-22T09:07:20.955Z,-86
2019-04-22T09:09:36.303Z,-84
2019-04-22T09:12:08.409Z,-84
2019-04-22T09:14:44.589Z,-85
2019-04-22T09:17:17.408Z,-85
2019-04-22T09:19:53.283Z,-84
2019-04-22T09:22:21.977Z,-86
2019-04-22T09:24:56.027Z,-84
2019-04-22T09:30:10.486Z,-85
2019-04-22T09:35:09.947Z,-85
2019-04-22T09:40:22.408Z,-86
2019-04-22T09:42:56.132Z,-85
2019-04-22T09:45:27.473Z,-87
2019-04-22T09:48:08.679Z,-87
2019-04-22T09:50:43.114Z,-86
2019-04-22T09:53:18.215Z,-86
2019-04-22T09:55:45.118Z,-86
2019-04-22T09:58:20.725Z,-86
2019-04-22T10:01:33.277Z,-86
2019-04-22T10:04:00.991Z,-86
2019-04-22T10:06:35.333Z,-85
2019-04-22T10:11:56.353Z,-86
2019-04-22T10:14:23.902Z,-86
2019-04-22T10:16:47.888Z,-85
2019-04-22T10:19:29.997Z,-86
2019-04-22T10:22:05.240Z,-86
2019-04-22T10:24:38.821Z,-86
2019-04-22T10:27:18.627Z,-85
2019-04-22T10:29:54.053Z,-85
2019-04-22T10:32:27.097Z,-84
2019-04-22T10:34:48.571Z,-85
2019-04-22T10:37:18.346Z,-85
2019-04-22T10:39:56.264Z,-85
2019-04-22T10:42:25.373Z,-85
2019-04-22T10:44:57.380Z,-84
2019-04-22T10:47:29.883Z,-84
2019-04-22T10:50:02.787Z,-84
2019-04-22T10:52:35.191Z,-83
2019-04-22T10:55:09.973Z,-80
2019-04-22T10:57:42.255Z,-81
2019-04-22T11:00:15.626Z,-81
2019-04-22T11:02:47.872Z,-82
2019-04-22T11:05:20.176Z,-82
2019-04-22T11:07:57.936Z,-82
2019-04-22T11:10:36.764Z,-86
2019-04-22T11:13:00.941Z,-86
2019-04-22T11:15:33.000Z,-85
2019-04-22T11:18:07.422Z,-86
2019-04-22T11:20:41.821Z,-87
2019-04-22T11:23:16.514Z,-85
2019-04-22T11:25:50.039Z,-86
2019-04-22T11:28:23.374Z,-86
2019-04-22T11:30:56.361Z,-86
2019-04-22T11:33:30.423Z,-85
2019-04-22T11:36:03.863Z,-86
2019-04-22T11:38:38.949Z,-85
2019-04-22T11:41:09.758Z,-86
2019-04-22T11:43:42.985Z,-87
2019-04-22T11:46:15.696Z,-86
2019-04-22T11:48:49.796Z,-87
2019-04-22T11:51:22.117Z,-85
2019-04-22T11:53:54.745Z,-85
2019-04-22T11:56:27.191Z,-86
2019-04-22T11:59:00.657Z,-86
2019-04-22T12:01:33.128Z,-83
2019-04-22T12:04:05.507Z,-85
2019-04-22T12:06:37.929Z,-84
2019-04-22T12:09:12.815Z,-85
2019-04-22T12:11:44.650Z,-83
2019-04-22T12:14:18.214Z,-84
2019-04-22T12:16:50.005Z,-85
2019-04-22T12:19:23.217Z,-85
2019-04-22T12:21:55.250Z,-84
2019-04-22T12:24:28.097Z,-84
2019-04-22T12:27:02.145Z,-83
2019-04-22T12:29:35.144Z,-84
2019-04-22T12:32:07.619Z,-86
2019-04-22T12:34:39.739Z,-85
2019-04-22T12:37:14.838Z,-86
2019-04-22T12:39:47.464Z,-86
2019-04-22T12:42:19.698Z,-85
2019-04-22T12:44:51.573Z,-86
2019-04-22T12:47:24.423Z,-84
2019-04-22T12:50:08.970Z,-83
2019-04-22T12:52:37.350Z,-88
2019-04-22T12:55:03.901Z,-86
2019-04-22T12:57:36.834Z,-86
2019-04-22T13:00:13.585Z,-87
2019-04-22T13:02:45.542Z,-86
2019-04-22T13:05:20.182Z,-88
2019-04-22T13:07:53.677Z,-86
2019-04-22T13:10:33.660Z,-88
2019-04-22T13:13:00.860Z,-86
2019-04-22T13:15:33.029Z,-86
2019-04-22T13:18:14.822Z,-87
2019-04-22T13:20:38.860Z,-87
2019-04-22T13:23:11.660Z,-88
2019-04-22T13:25:44.880Z,-87
2019-04-22T13:28:18.641Z,-87
2019-04-22T13:30:52.745Z,-87
2019-04-22T13:33:25.095Z,-88
2019-04-22T13:35:57.789Z,-87
2019-04-22T13:38:31.137Z,-87
2019-04-22T13:41:14.840Z,-89
2019-04-22T13:43:38.729Z,-91
2019-04-22T13:46:12.346Z,-87
2019-04-22T13:49:09.680Z,-87
2019-04-22T13:52:02.386Z,-87
2019-04-22T13:56:50.612Z,-86
2019-04-22T13:59:11.294Z,-87
2019-04-22T14:01:50.687Z,-86
2019-04-22T14:04:32.657Z,-86
2019-04-22T14:07:05.195Z,-85
2019-04-22T14:09:38.207Z,-86
2019-04-22T14:12:13.662Z,-86
2019-04-22T14:14:45.835Z,-85
2019-04-22T14:17:18.797Z,-84
2019-04-22T14:19:50.918Z,-83
2019-04-22T14:22:22.775Z,-82
2019-04-22T14:24:54.885Z,-83
2019-04-22T14:27:38.268Z,-81
2019-04-22T14:30:01.990Z,-83
2019-04-22T14:32:36.053Z,-83
2019-04-22T14:35:09.230Z,-82
2019-04-22T14:37:42.448Z,-84
2019-04-22T14:40:18.766Z,-82
2019-04-22T14:43:09.910Z,-83
2019-04-22T14:46:01.056Z,-89
2019-04-22T14:48:19.940Z,-85
2019-04-22T14:50:51.637Z,-84
2019-04-22T14:53:27.655Z,-82
2019-04-22T14:55:40.386Z,-84
2019-04-22T14:58:13.185Z,-84
2019-04-22T15:00:45.945Z,-84
2019-04-22T15:03:19.587Z,-84
2019-04-22T15:05:52.317Z,-84
2019-04-22T15:08:24.871Z,-84
2019-04-22T15:10:58.256Z,-85
2019-04-22T15:13:31.568Z,-84
2019-04-22T15:16:23.794Z,-84
2019-04-22T15:19:22.033Z,-86
2019-04-22T15:21:54.638Z,-85
2019-04-22T15:24:27.517Z,-85
2019-04-22T15:27:00.860Z,-85
2019-04-22T15:29:33.674Z,-85
2019-04-22T15:32:07.341Z,-85
2019-04-22T15:34:39.596Z,-84
2019-04-22T15:37:11.988Z,-85
2019-04-22T15:39:45.605Z,-84
2019-04-22T15:42:27.632Z,-83
2019-04-22T15:44:53.788Z,-85
2019-04-22T15:47:27.028Z,-85
2019-04-22T15:50:00.256Z,-85
2019-04-22T15:52:41.967Z,-85
2019-04-22T15:55:09.025Z,-90
2019-04-22T15:57:42.048Z,-88
2019-04-22T16:00:29.426Z,-84
2019-04-22T16:02:49.889Z,-84
2019-04-22T16:05:22.697Z,-83
2019-04-22T16:07:55.175Z,-83
2019-04-22T16:10:28.048Z,-83
2019-04-22T16:13:09.389Z,-86
2019-04-22T16:15:36.351Z,-86
2019-04-22T16:18:09.421Z,-83
2019-04-22T16:20:43.913Z,-83
2019-04-22T16:23:40.436Z,-88
2019-04-22T16:26:18.005Z,-83
2019-04-22T16:28:52.739Z,-83
2019-04-22T16:31:25.101Z,-84
2019-04-22T16:33:58.417Z,-81
2019-04-22T16:36:31.066Z,-82
2019-04-22T16:39:04.703Z,-83
2019-04-22T16:41:37.136Z,-83
2019-04-22T16:44:09.539Z,-84
2019-04-22T16:46:43.313Z,-83
2019-04-22T16:49:15.971Z,-83
2019-04-22T16:51:49.947Z,-82
2019-04-22T16:54:22.234Z,-82
2019-04-22T16:56:54.361Z,-81
2019-04-22T16:59:26.763Z,-81
2019-04-22T17:02:20.639Z,-81
2019-04-22T17:04:59.647Z,-86
2019-04-22T17:07:31.981Z,-86
2019-04-22T17:10:04.211Z,-85
2019-04-22T17:12:44.331Z,-86
2019-04-22T17:15:12.709Z,-85
2019-04-22T17:17:45.295Z,-83
2019-04-22T17:20:17.442Z,-83
2019-04-22T17:22:49.543Z,-84
2019-04-22T17:25:22.476Z,-84
2019-04-22T17:27:55.257Z,-85
2019-04-22T17:30:29.027Z,-84
2019-04-22T17:33:03.153Z,-82
2019-04-22T17:35:36.017Z,-82
2019-04-22T17:38:16.350Z,-82
2019-04-22T17:40:55.867Z,-82
2019-04-22T17:43:50.570Z,-83
2019-04-22T17:46:19.620Z,-83
2019-04-22T17:48:57.646Z,-82
2019-04-22T17:51:38.183Z,-83
2019-04-22T17:54:12.138Z,-83
2019-04-22T17:56:43.649Z,-88
2019-04-22T17:59:20.386Z,-87
2019-04-22T18:01:43.875Z,-85
2019-04-22T18:04:04.818Z,-87
2019-04-22T18:07:03.840Z,-88
2019-04-22T18:10:06.653Z,-87
2019-04-22T18:12:13.021Z,-87
2019-04-22T18:14:59.831Z,-88
2019-04-22T18:17:17.270Z,-87
2019-04-22T18:19:46.257Z,-87
2019-04-22T18:22:16.429Z,-87
2019-04-22T18:24:50.432Z,-86
2019-04-22T18:27:43.818Z,-87
2019-04-22T18:29:55.805Z,-86
2019-04-22T18:32:30.776Z,-87
2019-04-22T18:35:11.895Z,-85
2019-04-22T18:37:43.752Z,-82
2019-04-22T18:40:18.251Z,-84
2019-04-22T18:42:56.551Z,-85
2019-04-22T18:45:45.468Z,-84
2019-04-22T18:47:55.461Z,-88
2019-04-22T18:50:52.837Z,-86
2019-04-22T18:53:44.620Z,-83
2019-04-22T18:56:31.510Z,-84
2019-04-22T18:58:51.325Z,-84
2019-04-22T19:01:13.208Z,-83
2019-04-22T19:03:55.160Z,-85
2019-04-22T19:06:56.189Z,-83
2019-04-22T19:09:16.716Z,-83
2019-04-22T19:12:03.148Z,-82
2019-04-22T19:14:25.320Z,-81
2019-04-22T19:17:07.365Z,-82
2019-04-22T19:21:57.530Z,-82
2019-04-22T19:24:37.209Z,-82
2019-04-22T19:27:09.117Z,-81
2019-04-22T19:29:49.212Z,-80
2019-04-22T19:32:22.425Z,-81
2019-04-22T19:34:48.195Z,-82
2019-04-22T19:37:25.788Z,-84
2019-04-22T19:40:10.482Z,-82
2019-04-22T19:45:08.856Z,-82
2019-04-22T19:47:43.564Z,-82
2019-04-22T19:50:16.517Z,-82
2019-04-22T19:52:56.666Z,-83
2019-04-22T19:55:25.400Z,-83
2019-04-22T19:57:54.357Z,-84
2019-04-22T20:00:38.675Z,-81
2019-04-22T20:03:46.376Z,-83
2019-04-22T20:06:27.335Z,-83
2019-04-22T20:08:59.716Z,-83
2019-04-22T20:11:34.209Z,-81
2019-04-22T20:14:12.080Z,-82
2019-04-22T20:16:41.325Z,-83
2019-04-22T20:19:21.936Z,-84
2019-04-22T20:21:51.241Z,-84
2019-04-22T20:24:12.001Z,-84
2019-04-22T20:27:08.913Z,-84
2019-04-22T20:29:37.330Z,-84
2019-04-22T20:32:05.524Z,-84
2019-04-22T20:34:47.445Z,-83
2019-04-22T20:37:18.003Z,-84
2019-04-22T20:39:48.201Z,-83
2019-04-22T20:42:31.338Z,-84
2019-04-22T20:44:57.139Z,-83
2019-04-22T20:47:22.036Z,-84
2019-04-22T20:50:07.997Z,-84
2019-04-22T20:52:38.673Z,-84
2019-04-22T20:55:07.768Z,-84
2019-04-22T20:57:49.519Z,-84
2019-04-22T21:00:15.169Z,-85
2019-04-22T21:02:45.500Z,-83
2019-04-22T21:05:20.830Z,-83
2019-04-22T21:08:02.481Z,-83
2019-04-22T21:10:30.457Z,-83
2019-04-22T21:13:03.410Z,-85
2019-04-22T21:15:45.618Z,-82
2019-04-22T21:18:13.387Z,-81
2019-04-22T21:20:51.711Z,-81
2019-04-22T21:23:21.652Z,-84
2019-04-22T21:26:00.922Z,-84
2019-04-22T21:28:36.713Z,-84
2019-04-22T21:31:05.835Z,-83
2019-04-22T21:33:40.393Z,-82
2019-04-22T21:36:20.637Z,-85
2019-04-22T21:38:43.663Z,-83
2019-04-22T21:41:18.977Z,-85
2019-04-22T21:43:52.670Z,-83
2019-04-22T21:46:32.404Z,-85
2019-04-22T21:48:59.938Z,-83
2019-04-22T21:51:39.742Z,-82
2019-04-22T21:54:16.873Z,-83
2019-04-22T21:57:18.885Z,-83
2019-04-22T21:59:40.645Z,-83
2019-04-22T22:02:25.582Z,-82
2019-04-22T22:04:47.282Z,-84
2019-04-22T22:07:13.596Z,-84
2019-04-22T22:09:59.655Z,-83
2019-04-22T22:12:36.183Z,-83
2019-04-22T22:15:07.140Z,-83
2019-04-22T22:17:40.074Z,-83
2019-04-22T22:20:09.976Z,-84
2019-04-22T22:22:51.971Z,-83
2019-04-22T22:25:26.546Z,-84
2019-04-22T22:27:58.656Z,-83
2019-04-22T22:33:05.899Z,-83
2019-04-22T22:35:39.346Z,-83
2019-04-22T22:38:13.355Z,-84
2019-04-22T22:40:28.600Z,-83
2019-04-22T22:43:11.749Z,-82
2019-04-22T22:45:43.806Z,-83
2019-04-22T22:48:38.740Z,-82
2019-04-22T22:50:58.970Z,-83
2019-04-22T22:53:40.136Z,-81
2019-04-22T22:56:14.303Z,-82
2019-04-22T22:58:50.591Z,-83
2019-04-22T23:01:24.206Z,-83
2019-04-22T23:03:57.702Z,-83
2019-04-22T23:06:32.795Z,-83
2019-04-22T23:09:05.683Z,-83
2019-04-22T23:11:53.778Z,-82
2019-04-22T23:14:07.833Z,-84
2019-04-22T23:16:31.454Z,-82
2019-04-22T23:19:02.294Z,-82
2019-04-22T23:21:43.346Z,-82
2019-04-22T23:24:37.763Z,-82
2019-04-22T23:27:10.420Z,-82
2019-04-22T23:29:55.592Z,-82
2019-04-22T23:32:31.811Z,-82
2019-04-22T23:35:16.743Z,-81
2019-04-22T23:37:50.027Z,-82
2019-04-22T23:40:32.846Z,-82
2019-04-22T23:42:58.694Z,-84
2019-04-22T23:45:42.909Z,-80
2019-04-22T23:48:08.326Z,-82
2019-04-22T23:50:47.277Z,-82
2019-04-22T23:53:33.130Z,-82
2019-04-22T23:56:13.536Z,-81
2019-04-22T23:58:53.072Z,-82
